Hoyu — 3EYR2 — position and weather

sailwx.info

Track history (hours):
 
Tides and Currents Weather Stations Pressure Air Temp Water Temp Dewpoint Dewpoint Depression Visibility Wind Speed Wind Dir Waves Ship Positions

Hoyu

Last reported at 2017-Oct-10 22:09 UTC. Time now 2017-Oct-17 16:49 UTC.
Position N 01°19' E 104°05'.

Length 114 m; draft 6.3 m.

Type: Ship. MMSI: 370419000.

Date/timePositionNaut miles runAvg speedWind from/ knotsBaromVisibWave heightAir tempDewpointWater temp
2017-Oct-10 22:09N 01°19' E 104°05'212.6
2017-Oct-10 21:59N 01°21' E 104°04'4 0.7
2017-Oct-10 16:38N 01°23' E 104°01'0 2.0
2017-Oct-10 16:30N 01°23' E 104°01'8 1.4
2017-Oct-10 11:01N 01°26' E 103°54'0 1.1
2017-Oct-10 10:49N 01°26' E 103°54'8 6.2
2017-Oct-10 09:29N 01°22' E 104°02'5 8.8
2017-Oct-10 08:58N 01°20' E 104°06'1 0.5
2017-Oct-10 07:15N 01°20' E 104°06'10 9.1
2017-Oct-10 06:06N 01°14' E 103°58'113.7
2017-Oct-10 06:00N 01°13' E 103°57'713.4
2017-Oct-10 05:30N 01°10' E 103°50'712.7
2017-Oct-10 04:59N 01°07' E 103°45'613.3
2017-Oct-10 04:30N 01°03' E 103°40'712.2
2017-Oct-10 03:57N 01°05' E 103°34'812.6
2017-Oct-10 03:17N 01°10' E 103°27'7 0.1
2017-Oct-07 23:54N 01°16' E 103°23'614.8
2017-Oct-07 23:30N 01°13' E 103°28'713.8
2017-Oct-07 22:59N 01°12' E 103°35'510.2
2017-Oct-07 22:30N 01°12' E 103°40'2 2.9
2017-Oct-07 21:46N 01°14' E 103°38'0 0.1
2017-Oct-07 21:19N 01°14' E 103°38'0 0.0
2017-Oct-07 20:58N 01°14' E 103°38'0 0.1
2017-Oct-07 20:28N 01°14' E 103°38'0 0.1
2017-Oct-07 19:55N 01°14' E 103°38'0 0.0
2017-Oct-07 19:28N 01°14' E 103°38'0 0.0
2017-Oct-07 18:58N 01°14' E 103°38'0 0.0
2017-Oct-07 18:28N 01°14' E 103°38'0 0.0
2017-Oct-07 17:58N 01°14' E 103°38'0 0.0
2017-Oct-07 17:25N 01°14' E 103°38'0 0.0
2017-Oct-07 16:58N 01°14' E 103°38'0 0.0
2017-Oct-07 16:25N 01°14' E 103°38'0 0.0
2017-Oct-07 15:58N 01°14' E 103°38'0 0.0
2017-Oct-07 15:28N 01°14' E 103°38'0 0.0
2017-Oct-07 14:55N 01°14' E 103°38'0 0.0
2017-Oct-07 14:28N 01°14' E 103°38'0 0.1
2017-Oct-07 13:58N 01°14' E 103°38'0 0.0
2017-Oct-07 13:28N 01°14' E 103°38'0 0.0
2017-Oct-07 12:55N 01°14' E 103°38'0 0.0
2017-Oct-07 12:28N 01°14' E 103°38'0 0.1
2017-Oct-07 11:55N 01°14' E 103°38'0 0.0
2017-Oct-07 11:28N 01°14' E 103°38'0 0.0
2017-Oct-07 10:58N 01°14' E 103°38'0 0.0
2017-Oct-07 10:28N 01°14' E 103°38'0 0.0
2017-Oct-07 09:58N 01°14' E 103°38'1 1.7
2017-Oct-07 09:30N 01°13' E 103°39'4 7.9
2017-Oct-07 08:59N 01°10' E 103°42'510.8
2017-Oct-07 08:30N 01°10' E 103°47'611.1
2017-Oct-07 07:59N 01°12' E 103°52'611.9
2017-Oct-07 07:30N 01°15' E 103°57'  
2017-Oct-01 18:07N 22°28' E 120°02'114.2
2017-Oct-01 18:00N 22°29' E 120°03'714.1
2017-Oct-01 17:30N 22°35' E 120°07'612.2
2017-Oct-01 17:00N 22°38' E 120°13'5 9.1
2017-Oct-01 16:30N 22°36' E 120°17'1 2.3
2017-Oct-01 16:00N 22°35' E 120°18'0 0.0
2017-Oct-01 15:30N 22°35' E 120°18'0 0.0
2017-Oct-01 07:52N 22°35' E 120°18'0 1.0
2017-Oct-01 07:30N 22°35' E 120°18'4 8.8
2017-Oct-01 07:00N 22°37' E 120°14'2 3.7
2017-Oct-01 06:30N 22°37' E 120°12'1 1.6
2017-Oct-01 06:00N 22°38' E 120°11'2 4.7
2017-Oct-01 05:30N 22°38' E 120°08'611.9
2017-Oct-01 05:00N 22°41' E 120°04'713.9
2017-Oct-01 04:30N 22°45' E 119°57'  
Track history (hours):
 
Tides and Currents Weather Stations Pressure Air Temp Water Temp Dewpoint Dewpoint Depression Visibility Wind Speed Wind Dir Waves Ship Positions

Hoyu

Last reported at 2017-Oct-10 22:09 UTC. Time now 2017-Oct-17 16:49 UTC.
Position N 01°19' E 104°05'.

Length 114 m; draft 6.3 m.

Type: Ship. MMSI: 370419000.

Date/timePositionNaut miles runAvg speedWind from/ knotsBaromVisibWave heightAir tempDewpointWater temp
2017-Oct-10 22:09N 01°19' E 104°05'212.6
2017-Oct-10 21:59N 01°21' E 104°04'4 0.7
2017-Oct-10 16:38N 01°23' E 104°01'0 2.0
2017-Oct-10 16:30N 01°23' E 104°01'8 1.4
2017-Oct-10 11:01N 01°26' E 103°54'0 1.1
2017-Oct-10 10:49N 01°26' E 103°54'8 6.2
2017-Oct-10 09:29N 01°22' E 104°02'5 8.8
2017-Oct-10 08:58N 01°20' E 104°06'1 0.5
2017-Oct-10 07:15N 01°20' E 104°06'10 9.1
2017-Oct-10 06:06N 01°14' E 103°58'113.7
2017-Oct-10 06:00N 01°13' E 103°57'713.4
2017-Oct-10 05:30N 01°10' E 103°50'712.7
2017-Oct-10 04:59N 01°07' E 103°45'613.3
2017-Oct-10 04:30N 01°03' E 103°40'712.2
2017-Oct-10 03:57N 01°05' E 103°34'812.6
2017-Oct-10 03:17N 01°10' E 103°27'7 0.1
2017-Oct-07 23:54N 01°16' E 103°23'614.8
2017-Oct-07 23:30N 01°13' E 103°28'713.8
2017-Oct-07 22:59N 01°12' E 103°35'510.2
2017-Oct-07 22:30N 01°12' E 103°40'2 2.9
2017-Oct-07 21:46N 01°14' E 103°38'0 0.1
2017-Oct-07 21:19N 01°14' E 103°38'0 0.0
2017-Oct-07 20:58N 01°14' E 103°38'0 0.1
2017-Oct-07 20:28N 01°14' E 103°38'0 0.1
2017-Oct-07 19:55N 01°14' E 103°38'0 0.0
2017-Oct-07 19:28N 01°14' E 103°38'0 0.0
2017-Oct-07 18:58N 01°14' E 103°38'0 0.0
2017-Oct-07 18:28N 01°14' E 103°38'0 0.0
2017-Oct-07 17:58N 01°14' E 103°38'0 0.0
2017-Oct-07 17:25N 01°14' E 103°38'0 0.0
2017-Oct-07 16:58N 01°14' E 103°38'0 0.0
2017-Oct-07 16:25N 01°14' E 103°38'0 0.0
2017-Oct-07 15:58N 01°14' E 103°38'0 0.0
2017-Oct-07 15:28N 01°14' E 103°38'0 0.0
2017-Oct-07 14:55N 01°14' E 103°38'0 0.0
2017-Oct-07 14:28N 01°14' E 103°38'0 0.1
2017-Oct-07 13:58N 01°14' E 103°38'0 0.0
2017-Oct-07 13:28N 01°14' E 103°38'0 0.0
2017-Oct-07 12:55N 01°14' E 103°38'0 0.0
2017-Oct-07 12:28N 01°14' E 103°38'0 0.1
2017-Oct-07 11:55N 01°14' E 103°38'0 0.0
2017-Oct-07 11:28N 01°14' E 103°38'0 0.0
2017-Oct-07 10:58N 01°14' E 103°38'0 0.0
2017-Oct-07 10:28N 01°14' E 103°38'0 0.0
2017-Oct-07 09:58N 01°14' E 103°38'1 1.7
2017-Oct-07 09:30N 01°13' E 103°39'4 7.9
2017-Oct-07 08:59N 01°10' E 103°42'510.8
2017-Oct-07 08:30N 01°10' E 103°47'611.1
2017-Oct-07 07:59N 01°12' E 103°52'611.9
2017-Oct-07 07:30N 01°15' E 103°57'  
2017-Oct-01 18:07N 22°28' E 120°02'114.2
2017-Oct-01 18:00N 22°29' E 120°03'714.1
2017-Oct-01 17:30N 22°35' E 120°07'612.2
2017-Oct-01 17:00N 22°38' E 120°13'5 9.1
2017-Oct-01 16:30N 22°36' E 120°17'1 2.3
2017-Oct-01 16:00N 22°35' E 120°18'0 0.0
2017-Oct-01 15:30N 22°35' E 120°18'0 0.0
2017-Oct-01 07:52N 22°35' E 120°18'0 1.0
2017-Oct-01 07:30N 22°35' E 120°18'4 8.8
2017-Oct-01 07:00N 22°37' E 120°14'2 3.7
2017-Oct-01 06:30N 22°37' E 120°12'1 1.6
2017-Oct-01 06:00N 22°38' E 120°11'2 4.7
2017-Oct-01 05:30N 22°38' E 120°08'611.9
2017-Oct-01 05:00N 22°41' E 120°04'713.9
2017-Oct-01 04:30N 22°45' E 119°57'  

Dump ship's entire track history